createdAt,value
2022-11-29T00:00:46.981Z,23.85
2022-11-29T00:03:14.986Z,26.02
2022-11-29T00:05:41.588Z,25.95
2022-11-29T00:08:07.968Z,28.30
2022-11-29T00:10:38.030Z,24.23
2022-11-29T00:13:05.096Z,24.85
2022-11-29T00:15:36.696Z,26.10
2022-11-29T00:18:03.797Z,25.35
2022-11-29T00:20:30.724Z,24.30
2022-11-29T00:22:57.102Z,25.25
2022-11-29T00:25:23.759Z,24.95
2022-11-29T00:27:51.464Z,26.00
2022-11-29T00:30:18.952Z,24.95
2022-11-29T00:32:45.381Z,24.85
2022-11-29T00:35:12.247Z,26.85
2022-11-29T00:37:38.700Z,25.70
2022-11-29T00:40:06.244Z,25.75
2022-11-29T00:42:32.691Z,25.60
2022-11-29T00:44:59.082Z,28.80
2022-11-29T00:47:25.476Z,21.73
2022-11-29T00:49:52.126Z,23.15
2022-11-29T00:52:18.504Z,24.58
2022-11-29T00:54:45.332Z,24.25
2022-11-29T00:57:11.991Z,24.17
2022-11-29T00:59:38.397Z,23.35
2022-11-29T01:02:04.821Z,23.98
2022-11-29T01:04:31.371Z,23.40
2022-11-29T01:06:57.739Z,26.35
2022-11-29T01:09:24.128Z,24.73
2022-11-29T01:11:50.808Z,22.27
2022-11-29T01:14:17.283Z,25.70
2022-11-29T01:16:43.749Z,23.75
2022-11-29T01:19:10.219Z,25.60
2022-11-29T01:21:37.555Z,22.90
2022-11-29T01:24:04.227Z,23.80
2022-11-29T01:26:31.323Z,22.75
2022-11-29T01:28:58.995Z,23.92
2022-11-29T01:31:32.505Z,23.30
2022-11-29T01:34:01.199Z,24.50
2022-11-29T01:36:28.430Z,23.67
2022-11-29T01:38:55.459Z,23.20
2022-11-29T01:41:25.972Z,23.83
2022-11-29T01:44:06.319Z,24.60
2022-11-29T01:46:38.375Z,26.92
2022-11-29T01:49:11.339Z,25.33
2022-11-29T01:51:40.412Z,25.92
2022-11-29T01:54:08.562Z,26.00
2022-11-29T01:56:36.054Z,24.10
2022-11-29T01:59:07.862Z,24.05
2022-11-29T02:01:36.102Z,23.90
2022-11-29T02:04:03.808Z,24.67
2022-11-29T02:06:30.633Z,24.30
2022-11-29T02:08:57.279Z,22.27
2022-11-29T02:11:29.387Z,27.05
2022-11-29T02:14:07.879Z,24.42
2022-11-29T02:17:02.245Z,25.17
2022-11-29T02:19:47.409Z,26.40
2022-11-29T02:22:24.391Z,23.85
2022-11-29T02:25:26.199Z,23.40
2022-11-29T02:28:17.793Z,24.83
2022-11-29T02:31:12.338Z,21.27
2022-11-29T02:36:27.698Z,23.65
2022-11-29T02:39:00.176Z,21.63
2022-11-29T02:41:35.669Z,24.30
2022-11-29T02:44:08.317Z,24.30
2022-11-29T02:46:59.723Z,22.75
2022-11-29T02:50:09.908Z,24.10
2022-11-29T02:52:39.388Z,22.13
2022-11-29T02:55:22.417Z,25.17
2022-11-29T02:58:03.206Z,22.90
2022-11-29T03:00:32.746Z,22.55
2022-11-29T03:03:23.880Z,23.40
2022-11-29T03:06:15.285Z,22.00
2022-11-29T03:09:21.671Z,23.25
2022-11-29T03:11:56.865Z,22.50
2022-11-29T03:14:30.930Z,21.20
2022-11-29T03:17:23.518Z,23.92
2022-11-29T03:20:16.094Z,22.55
2022-11-29T03:23:04.272Z,22.05
2022-11-29T03:25:45.597Z,22.20
2022-11-29T03:28:21.719Z,21.98
2022-11-29T03:31:06.827Z,21.80
2022-11-29T03:33:48.408Z,24.52
2022-11-29T03:36:29.279Z,22.05
2022-11-29T03:39:01.949Z,24.35
2022-11-29T03:41:45.320Z,23.55
2022-11-29T03:44:24.273Z,25.52
2022-11-29T03:47:15.877Z,21.92
2022-11-29T03:50:20.538Z,22.83
2022-11-29T03:52:52.141Z,20.65
2022-11-29T03:55:31.786Z,20.20
2022-11-29T03:58:16.555Z,22.45
2022-11-29T04:00:48.936Z,21.40
2022-11-29T04:03:33.739Z,22.33
2022-11-29T04:06:24.805Z,23.75
2022-11-29T04:09:16.121Z,24.60
2022-11-29T04:12:03.820Z,22.20
2022-11-29T04:14:51.725Z,20.75
2022-11-29T04:17:36.514Z,24.45
2022-11-29T04:20:15.068Z,21.85
2022-11-29T04:23:04.411Z,23.08
2022-11-29T04:25:33.732Z,22.95
2022-11-29T04:28:29.062Z,24.50
2022-11-29T04:31:04.631Z,25.42
2022-11-29T04:33:53.901Z,22.35
2022-11-29T04:36:39.231Z,27.52
2022-11-29T04:39:43.395Z,26.15
2022-11-29T04:42:38.055Z,23.13
2022-11-29T04:47:58.138Z,24.77
2022-11-29T04:50:42.901Z,22.65
2022-11-29T04:53:39.218Z,22.17
2022-11-29T04:56:16.219Z,22.70
2022-11-29T04:59:18.682Z,22.15
2022-11-29T05:02:18.867Z,23.48
2022-11-29T05:04:55.627Z,23.60
2022-11-29T05:07:34.988Z,24.30
2022-11-29T05:10:38.613Z,24.30
2022-11-29T05:13:32.892Z,22.52
2022-11-29T05:16:15.353Z,26.45
2022-11-29T05:19:19.049Z,22.80
2022-11-29T05:22:17.807Z,21.65
2022-11-29T05:25:19.360Z,23.00
2022-11-29T05:27:58.155Z,22.80
2022-11-29T05:30:32.149Z,23.25
2022-11-29T05:33:29.090Z,20.80
2022-11-29T05:36:20.091Z,22.98
2022-11-29T05:39:05.282Z,22.15
2022-11-29T05:41:48.077Z,23.77
2022-11-29T05:44:34.016Z,25.48
2022-11-29T05:47:03.073Z,25.13
2022-11-29T05:50:07.334Z,23.50
2022-11-29T05:52:52.310Z,21.52
2022-11-29T05:55:45.078Z,26.50
2022-11-29T05:58:32.112Z,21.88
2022-11-29T06:01:18.654Z,24.17
2022-11-29T06:03:56.911Z,22.50
2022-11-29T06:06:34.953Z,22.80
2022-11-29T06:09:13.949Z,23.13
2022-11-29T06:11:52.004Z,23.88
2022-11-29T06:14:40.196Z,26.38
2022-11-29T06:19:55.224Z,23.08
2022-11-29T06:22:40.939Z,24.10
2022-11-29T06:25:31.705Z,20.73
2022-11-29T06:28:36.530Z,24.95
2022-11-29T06:31:14.913Z,22.45
2022-11-29T06:33:58.538Z,22.02
2022-11-29T06:36:33.833Z,24.70
2022-11-29T06:41:27.289Z,20.27
2022-11-29T06:43:54.020Z,21.27
2022-11-29T06:46:45.331Z,24.17
2022-11-29T06:49:14.168Z,21.40
2022-11-29T06:52:01.947Z,21.55
2022-11-29T06:54:36.295Z,25.17
2022-11-29T06:57:15.790Z,21.02
2022-11-29T06:59:50.183Z,21.67
2022-11-29T07:02:35.275Z,20.77
2022-11-29T07:05:21.875Z,22.00
2022-11-29T07:07:48.813Z,26.92
2022-11-29T07:10:19.820Z,34.45
2022-11-29T07:12:47.977Z,20.80
2022-11-29T07:15:20.604Z,22.67
2022-11-29T07:18:08.803Z,20.75
2022-11-29T07:23:13.997Z,19.30
2022-11-29T07:25:54.025Z,20.52
2022-11-29T07:28:43.684Z,23.95
2022-11-29T07:31:31.304Z,23.25
2022-11-29T07:34:43.049Z,22.40
2022-11-29T07:37:37.487Z,21.30
2022-11-29T07:40:21.255Z,19.98
2022-11-29T07:43:12.422Z,19.23
2022-11-29T07:45:39.521Z,21.58
2022-11-29T07:48:06.957Z,19.98
2022-11-29T07:50:35.313Z,20.50
2022-11-29T07:53:01.873Z,21.33
2022-11-29T07:55:29.628Z,18.38
2022-11-29T07:57:56.030Z,20.75
2022-11-29T08:00:22.758Z,20.98
2022-11-29T08:02:50.962Z,20.67
2022-11-29T08:05:17.773Z,21.55
2022-11-29T08:07:44.391Z,18.80
2022-11-29T08:10:13.740Z,22.95
2022-11-29T08:12:49.967Z,19.88
2022-11-29T08:15:18.539Z,22.25
2022-11-29T08:17:45.037Z,20.45
2022-11-29T08:20:13.981Z,21.02
2022-11-29T08:22:40.436Z,22.15
2022-11-29T08:25:07.740Z,21.58
2022-11-29T08:27:36.013Z,19.38
2022-11-29T08:30:03.538Z,19.48
2022-11-29T08:32:29.956Z,21.92
2022-11-29T08:34:56.329Z,23.38
2022-11-29T08:37:22.733Z,23.83
2022-11-29T08:39:49.215Z,21.17
2022-11-29T08:42:18.186Z,21.10
2022-11-29T08:44:44.892Z,18.23
2022-11-29T08:47:30.019Z,18.60
2022-11-29T08:50:02.423Z,19.60
2022-11-29T08:52:47.916Z,22.70
2022-11-29T08:55:14.470Z,19.77
2022-11-29T08:57:41.398Z,20.27
2022-11-29T09:00:08.937Z,18.05
2022-11-29T09:02:37.005Z,20.48
2022-11-29T09:05:05.093Z,20.13
2022-11-29T09:07:31.620Z,19.38
2022-11-29T09:09:58.040Z,18.35
2022-11-29T09:12:24.662Z,18.65
2022-11-29T09:14:51.035Z,19.55
2022-11-29T09:17:17.449Z,18.13
2022-11-29T09:19:43.808Z,18.35
2022-11-29T09:22:10.172Z,21.42
2022-11-29T09:24:36.573Z,23.10
2022-11-29T09:27:03.108Z,18.95
2022-11-29T09:29:29.468Z,17.05
2022-11-29T09:31:56.024Z,17.42
2022-11-29T09:34:22.497Z,18.98
2022-11-29T09:36:49.100Z,25.60
2022-11-29T09:39:15.465Z,18.30
2022-11-29T09:41:54.112Z,19.73
2022-11-29T09:44:53.042Z,18.50
2022-11-29T09:47:38.271Z,18.15
2022-11-29T09:50:25.531Z,17.35
2022-11-29T09:53:29.384Z,18.33
2022-11-29T09:55:58.684Z,20.60
2022-11-29T09:58:30.717Z,16.88
2022-11-29T10:01:02.823Z,20.35
2022-11-29T10:03:42.754Z,20.10
2022-11-29T10:06:29.094Z,18.52
2022-11-29T10:09:07.086Z,18.67
2022-11-29T10:11:39.749Z,20.75
2022-11-29T10:14:22.167Z,18.80
2022-11-29T10:17:12.643Z,21.13
2022-11-29T10:19:49.945Z,17.70
2022-11-29T10:22:20.491Z,20.65
2022-11-29T10:24:54.300Z,19.48
2022-11-29T10:27:23.827Z,20.30
2022-11-29T10:29:54.208Z,20.70
2022-11-29T10:32:23.983Z,23.17
2022-11-29T10:34:51.177Z,20.58
2022-11-29T10:37:20.584Z,20.83
2022-11-29T10:40:04.541Z,18.52
2022-11-29T10:42:50.191Z,20.63
2022-11-29T10:45:27.967Z,26.77
2022-11-29T10:48:01.768Z,22.77
2022-11-29T10:50:31.535Z,20.75
2022-11-29T10:53:06.928Z,20.00
2022-11-29T10:55:43.637Z,19.38
2022-11-29T10:58:24.742Z,19.90
2022-11-29T11:00:57.371Z,18.48
2022-11-29T11:03:33.010Z,19.90
2022-11-29T11:06:02.739Z,18.63
2022-11-29T11:08:31.737Z,20.27
2022-11-29T11:11:01.730Z,20.17
2022-11-29T11:13:31.160Z,20.65
2022-11-29T11:16:09.784Z,20.02
2022-11-29T11:18:37.821Z,17.73
2022-11-29T11:21:08.438Z,20.80
2022-11-29T11:23:42.781Z,20.17
2022-11-29T11:26:12.729Z,20.35
2022-11-29T11:28:47.860Z,21.83
2022-11-29T11:31:14.704Z,24.77
2022-11-29T11:33:43.110Z,26.20
2022-11-29T11:36:12.473Z,23.80
2022-11-29T11:38:51.165Z,20.85
2022-11-29T11:41:47.611Z,23.10
2022-11-29T11:44:47.280Z,21.38
2022-11-29T11:47:19.517Z,21.08
2022-11-29T11:49:54.664Z,20.63
2022-11-29T11:54:54.626Z,19.80
2022-11-29T11:57:22.675Z,21.80
2022-11-29T11:59:50.813Z,25.48
2022-11-29T12:02:50.646Z,18.98
2022-11-29T12:05:19.301Z,19.63
2022-11-29T12:10:37.623Z,23.02
2022-11-29T12:13:04.939Z,20.77
2022-11-29T12:15:38.469Z,22.50
2022-11-29T12:18:41.927Z,24.85
2022-11-29T12:21:17.558Z,23.27
2022-11-29T12:24:39.701Z,22.35
2022-11-29T12:27:11.182Z,20.67
2022-11-29T12:29:37.722Z,19.95
2022-11-29T12:32:35.983Z,21.50
2022-11-29T12:35:28.371Z,21.25
2022-11-29T12:38:10.183Z,21.60
2022-11-29T12:43:49.621Z,17.13
2022-11-29T12:46:28.082Z,20.15
2022-11-29T12:49:01.236Z,20.77
2022-11-29T12:51:52.444Z,17.42
2022-11-29T12:54:29.045Z,17.17
2022-11-29T12:57:07.969Z,20.50
2022-11-29T13:00:07.124Z,20.20
2022-11-29T13:02:58.673Z,21.00
2022-11-29T13:05:30.279Z,20.92
2022-11-29T13:08:13.535Z,20.85
2022-11-29T13:11:04.485Z,18.52
2022-11-29T13:13:48.047Z,19.15
2022-11-29T13:16:32.797Z,19.85
2022-11-29T13:19:53.342Z,19.00
2022-11-29T13:22:39.103Z,20.05
2022-11-29T13:25:18.763Z,20.42
2022-11-29T13:27:56.839Z,23.00
2022-11-29T13:30:23.228Z,22.10
2022-11-29T13:33:05.223Z,30.73
2022-11-29T13:35:53.482Z,25.05
2022-11-29T13:38:29.034Z,25.98
2022-11-29T13:41:30.962Z,21.35
2022-11-29T13:44:10.326Z,24.08
2022-11-29T13:47:05.372Z,20.05
2022-11-29T13:49:57.176Z,21.20
2022-11-29T13:52:35.281Z,20.27
2022-11-29T13:55:11.423Z,23.92
2022-11-29T14:00:44.522Z,21.00
2022-11-29T14:03:23.266Z,20.35
2022-11-29T14:05:52.990Z,20.27
2022-11-29T14:09:02.433Z,21.08
2022-11-29T14:11:48.647Z,19.05
2022-11-29T14:14:25.685Z,21.35
2022-11-29T14:17:03.906Z,22.60
2022-11-29T14:19:36.043Z,19.52
2022-11-29T14:22:02.476Z,19.58
2022-11-29T14:24:31.865Z,19.50
2022-11-29T14:27:20.736Z,17.98
2022-11-29T14:29:50.220Z,21.42
2022-11-29T14:32:28.383Z,19.25
2022-11-29T14:35:19.011Z,20.42
2022-11-29T14:38:06.362Z,20.30
2022-11-29T14:40:41.760Z,18.95
2022-11-29T14:43:28.503Z,24.55
2022-11-29T14:46:16.663Z,21.13
2022-11-29T14:49:03.858Z,19.30
2022-11-29T14:51:32.333Z,18.60
2022-11-29T14:54:15.766Z,18.25
2022-11-29T14:56:44.989Z,21.38
2022-11-29T14:59:49.276Z,19.45
2022-11-29T15:02:27.102Z,19.65
2022-11-29T15:04:56.932Z,18.70
2022-11-29T15:07:29.324Z,20.00
2022-11-29T15:10:13.712Z,20.90
2022-11-29T15:12:40.585Z,19.25
2022-11-29T15:15:28.883Z,24.75
2022-11-29T15:18:03.661Z,23.17
2022-11-29T15:21:07.898Z,32.78
2022-11-29T15:23:44.041Z,32.38
2022-11-29T15:26:20.941Z,31.88
2022-11-29T15:28:47.404Z,32.85
2022-11-29T15:31:18.823Z,35.00
2022-11-29T15:33:47.630Z,38.33
2022-11-29T15:36:22.716Z,31.23
2022-11-29T15:38:52.337Z,29.23
2022-11-29T15:41:27.195Z,25.50
2022-11-29T15:43:57.790Z,22.23
2022-11-29T15:46:27.048Z,22.92
2022-11-29T15:48:54.138Z,22.75
2022-11-29T15:51:30.634Z,23.00
2022-11-29T15:54:26.679Z,27.55
2022-11-29T15:56:56.399Z,23.85
2022-11-29T15:59:28.906Z,23.23
2022-11-29T16:01:58.518Z,26.40
2022-11-29T16:04:27.162Z,26.15
2022-11-29T16:06:55.376Z,26.15
2022-11-29T16:09:31.490Z,31.08
2022-11-29T16:11:58.604Z,25.42
2022-11-29T16:14:28.059Z,25.17
2022-11-29T16:16:57.429Z,29.60
2022-11-29T16:19:37.678Z,23.23
2022-11-29T16:22:09.756Z,26.38
2022-11-29T16:25:01.415Z,21.92
2022-11-29T16:27:32.987Z,17.40
2022-11-29T16:30:00.358Z,24.98
2022-11-29T16:32:37.770Z,22.33
2022-11-29T16:35:17.938Z,18.30
2022-11-29T16:37:45.940Z,22.48
2022-11-29T16:40:21.044Z,24.20
2022-11-29T16:43:08.657Z,25.60
2022-11-29T16:45:36.818Z,21.90
2022-11-29T16:48:21.081Z,21.10
2022-11-29T16:51:10.353Z,22.95
2022-11-29T16:53:38.472Z,20.77
2022-11-29T16:56:05.541Z,17.50
2022-11-29T16:58:35.470Z,19.85
2022-11-29T17:01:19.053Z,20.25
2022-11-29T17:03:45.811Z,21.27
2022-11-29T17:06:18.489Z,19.40
2022-11-29T17:08:45.627Z,20.67
2022-11-29T17:11:12.172Z,26.80
2022-11-29T17:13:39.010Z,21.42
2022-11-29T17:16:11.238Z,21.75
2022-11-29T17:18:38.350Z,20.65
2022-11-29T17:21:04.861Z,22.13
2022-11-29T17:23:31.460Z,20.08
2022-11-29T17:26:02.151Z,21.13
2022-11-29T17:28:28.910Z,21.13
2022-11-29T17:30:55.365Z,20.92
2022-11-29T17:33:21.769Z,22.13
2022-11-29T17:35:48.172Z,20.67
2022-11-29T17:38:14.582Z,22.77
2022-11-29T17:40:40.966Z,34.70
2022-11-29T17:43:07.355Z,24.83
2022-11-29T17:45:33.842Z,27.58
2022-11-29T17:48:00.423Z,20.52
2022-11-29T17:50:26.815Z,20.90
2022-11-29T17:52:53.220Z,19.10
2022-11-29T17:55:20.922Z,24.45
2022-11-29T17:57:47.803Z,19.27
2022-11-29T18:00:15.512Z,23.10
2022-11-29T18:02:42.035Z,24.55
2022-11-29T18:05:08.841Z,21.73
2022-11-29T18:07:55.257Z,22.05
2022-11-29T18:10:22.117Z,20.33
2022-11-29T18:12:48.504Z,20.77
2022-11-29T18:15:14.988Z,18.80
2022-11-29T18:17:41.441Z,25.27
2022-11-29T18:20:08.367Z,23.08
2022-11-29T18:22:35.819Z,20.23
2022-11-29T18:25:30.563Z,21.30
2022-11-29T18:27:49.182Z,22.65
2022-11-29T18:30:15.893Z,19.65
2022-11-29T18:32:42.342Z,19.90
2022-11-29T18:35:09.289Z,21.02
2022-11-29T18:38:13.042Z,24.15
2022-11-29T18:40:22.916Z,27.85
2022-11-29T18:42:50.984Z,25.73
2022-11-29T18:45:17.360Z,23.13
2022-11-29T18:47:44.384Z,21.75
2022-11-29T18:50:11.190Z,22.48
2022-11-29T18:52:40.704Z,21.70
2022-11-29T18:55:07.773Z,19.83
2022-11-29T18:57:34.223Z,20.08
2022-11-29T19:00:00.646Z,20.83
2022-11-29T19:02:27.128Z,23.67
2022-11-29T19:04:53.617Z,19.00
2022-11-29T19:07:20.207Z,21.70
2022-11-29T19:09:46.650Z,17.63
2022-11-29T19:12:13.056Z,20.73
2022-11-29T19:14:41.822Z,23.20
2022-11-29T19:17:11.570Z,24.98
2022-11-29T19:19:38.235Z,29.75
2022-11-29T19:22:04.623Z,26.02
2022-11-29T19:24:31.024Z,31.05
2022-11-29T19:26:57.469Z,19.90
2022-11-29T19:29:23.929Z,23.10
2022-11-29T19:31:50.563Z,22.90
2022-11-29T19:34:16.998Z,22.35
2022-11-29T19:36:44.658Z,23.42
2022-11-29T19:39:14.160Z,22.33
2022-11-29T19:44:08.639Z,31.25
2022-11-29T19:46:37.664Z,25.52
2022-11-29T19:49:06.164Z,27.30
2022-11-29T19:51:33.183Z,23.13
2022-11-29T19:54:02.655Z,19.23
2022-11-29T19:56:30.795Z,19.02
2022-11-29T19:58:57.425Z,21.38
2022-11-29T20:01:37.788Z,21.17
2022-11-29T20:04:07.411Z,19.63
2022-11-29T20:06:33.844Z,19.10
2022-11-29T20:09:00.474Z,19.70
2022-11-29T20:11:26.909Z,21.88
2022-11-29T20:14:01.689Z,19.60
2022-11-29T20:16:29.489Z,21.33
2022-11-29T20:18:56.570Z,19.20
2022-11-29T20:21:31.753Z,22.52
2022-11-29T20:24:04.669Z,25.80
2022-11-29T20:26:33.750Z,22.15
2022-11-29T20:29:01.729Z,22.23
2022-11-29T20:31:28.712Z,24.80
2022-11-29T20:33:57.310Z,23.95
2022-11-29T20:36:42.178Z,25.33
2022-11-29T20:39:21.204Z,26.00
2022-11-29T20:41:53.800Z,28.13
2022-11-29T20:44:24.485Z,28.20
2022-11-29T20:46:51.048Z,23.70
2022-11-29T20:49:18.156Z,24.92
2022-11-29T20:51:53.881Z,22.90
2022-11-29T20:54:20.391Z,21.25
2022-11-29T20:56:46.803Z,21.58
2022-11-29T20:59:16.186Z,20.88
2022-11-29T21:01:42.633Z,21.00
2022-11-29T21:04:09.078Z,18.08
2022-11-29T21:06:39.558Z,17.67
2022-11-29T21:09:06.428Z,19.02
2022-11-29T21:11:33.125Z,17.25
2022-11-29T21:14:03.749Z,18.40
2022-11-29T21:16:31.627Z,17.90
2022-11-29T21:19:00.983Z,18.13
2022-11-29T21:21:45.560Z,17.45
2022-11-29T21:24:27.299Z,19.23
2022-11-29T21:29:22.645Z,26.80
2022-11-29T21:31:51.908Z,24.98
2022-11-29T21:34:19.247Z,23.23
2022-11-29T21:36:52.571Z,21.55
2022-11-29T21:39:19.011Z,20.30
2022-11-29T21:41:45.433Z,21.83
2022-11-29T21:44:11.850Z,22.52
2022-11-29T21:46:38.308Z,22.23
2022-11-29T21:49:05.080Z,28.00
2022-11-29T21:51:31.755Z,21.08
2022-11-29T21:53:58.176Z,22.55
2022-11-29T21:56:24.620Z,20.45
2022-11-29T21:58:51.014Z,18.00
2022-11-29T22:01:19.866Z,19.17
2022-11-29T22:03:47.027Z,19.20
2022-11-29T22:06:20.653Z,16.42
2022-11-29T22:08:48.616Z,17.42
2022-11-29T22:11:30.462Z,16.85
2022-11-29T22:14:16.512Z,18.20
2022-11-29T22:16:54.652Z,18.73
2022-11-29T22:19:28.696Z,16.73
2022-11-29T22:21:57.529Z,17.35
2022-11-29T22:26:52.498Z,18.02
2022-11-29T22:29:19.530Z,17.00
2022-11-29T22:31:47.805Z,18.25
2022-11-29T22:34:14.629Z,18.75
2022-11-29T22:36:41.246Z,21.20
2022-11-29T22:39:08.789Z,19.08
2022-11-29T22:41:36.636Z,18.63
2022-11-29T22:44:03.975Z,31.02
2022-11-29T22:46:30.443Z,46.67
2022-11-29T22:49:00.376Z,61.05
2022-11-29T22:51:33.052Z,25.92
2022-11-29T22:54:01.966Z,23.88
2022-11-29T22:56:34.325Z,21.90
2022-11-29T22:59:00.825Z,18.23
2022-11-29T23:01:29.533Z,17.33
2022-11-29T23:03:58.805Z,19.45
2022-11-29T23:06:30.856Z,20.88
2022-11-29T23:08:59.941Z,17.63
2022-11-29T23:11:28.608Z,18.08
2022-11-29T23:13:55.425Z,17.83
2022-11-29T23:16:27.220Z,16.15
2022-11-29T23:18:55.262Z,15.02
2022-11-29T23:21:24.681Z,15.35
2022-11-29T23:23:56.101Z,15.75
2022-11-29T23:26:33.903Z,16.10
2022-11-29T23:29:00.293Z,13.82
2022-11-29T23:31:26.768Z,14.73
2022-11-29T23:33:53.349Z,18.67
2022-11-29T23:36:20.017Z,18.00
2022-11-29T23:38:46.614Z,13.05
2022-11-29T23:41:13.353Z,12.32
2022-11-29T23:43:41.174Z,12.95
2022-11-29T23:46:08.650Z,13.40
2022-11-29T23:48:35.168Z,12.65
2022-11-29T23:51:01.823Z,11.75
2022-11-29T23:53:28.274Z,12.45
2022-11-29T23:56:03.243Z,11.90
2022-11-29T23:58:30.607Z,12.55
